Time;durP1;ratioP1;P1;durP2;ratioP2;P2;SDS_P1;SDS_P2;PMS_P1;PMS_P2;Temp;Humidity;BMP_temperature;BMP_pressure;BME280_temperature;BME280_humidity;BME280_pressure;Samples;Min_cycle;Max_cycle;Signal;HPM_P1;HPM_P2
2022/09/07 00:01:48;;;;;;;7.07;6.43;;;;;;;17.62;78.90;100666.47;5049629;28;20639;-83
2022/09/07 00:04:14;;;;;;;7.43;6.68;;;;;;;17.61;78.73;100671.81;5036195;28;20484;-83
2022/09/07 00:06:45;;;;;;;6.40;5.80;;;;;;;17.60;78.91;100683.31;5016547;28;20442;-82
2022/09/07 00:09:12;;;;;;;9.57;6.63;;;;;;;17.58;78.90;100687.81;5030281;28;20118;-81
2022/09/07 00:11:41;;;;;;;7.88;6.15;;;;;;;17.54;80.03;100687.06;5032581;28;20041;-82
2022/09/07 00:14:08;;;;;;;8.52;5.80;;;;;;;17.52;79.61;100687.13;5031415;28;20435;-83
2022/09/07 00:16:36;;;;;;;7.10;6.47;;;;;;;17.52;79.94;100691.53;5018742;28;20504;-82
2022/09/07 00:19:04;;;;;;;6.13;5.50;;;;;;;17.48;79.71;100696.13;5033343;28;20647;-83
2022/09/07 00:21:35;;;;;;;10.50;7.80;;;;;;;17.47;80.86;100697.03;5016245;28;20562;-83
2022/09/07 00:24:02;;;;;;;7.90;7.10;;;;;;;17.45;81.11;100690.91;5014523;28;20045;-82
2022/09/07 00:26:30;;;;;;;8.02;6.82;;;;;;;17.46;80.96;100694.44;5016382;28;20412;-82
2022/09/07 00:29:02;;;;;;;8.00;7.18;;;;;;;17.44;81.29;100691.84;5014919;28;20063;-83
2022/09/07 00:31:31;;;;;;;8.85;6.88;;;;;;;17.42;81.61;100695.47;5013579;28;20491;-83
2022/09/07 00:34:00;;;;;;;6.82;6.22;;;;;;;17.40;81.55;100686.72;5015646;28;20045;-83
2022/09/07 00:36:28;;;;;;;7.22;6.40;;;;;;;17.38;81.90;100681.50;5031693;28;20045;-83
2022/09/07 00:38:55;;;;;;;7.97;7.10;;;;;;;17.37;82.41;100685.06;5014455;28;20055;-81
2022/09/07 00:41:23;;;;;;;8.32;7.32;;;;;;;17.36;82.68;100681.56;5024258;28;20052;-84
2022/09/07 00:43:55;;;;;;;8.65;6.38;;;;;;;17.34;82.75;100683.38;5032115;28;20091;-83
2022/09/07 00:46:30;;;;;;;8.40;7.15;;;;;;;17.30;83.43;100675.59;5016569;28;20474;-83
2022/09/07 00:49:03;;;;;;;7.78;7.07;;;;;;;17.29;83.47;100677.38;5032889;28;20580;-83
2022/09/07 00:51:39;;;;;;;9.25;8.25;;;;;;;17.27;84.06;100684.50;5047374;28;20542;-83
2022/09/07 00:54:22;;;;;;;8.48;7.72;;;;;;;17.26;84.55;100674.00;5031755;28;20033;-83
2022/09/07 00:56:51;;;;;;;9.30;6.90;;;;;;;17.25;84.37;100669.59;5027607;28;20048;-83
2022/09/07 00:59:24;;;;;;;7.57;6.88;;;;;;;17.25;84.33;100672.25;5030649;28;20519;-83
2022/09/07 01:01:55;;;;;;;8.38;6.97;;;;;;;17.23;84.53;100664.38;5011565;28;20049;-82
2022/09/07 01:04:25;;;;;;;7.97;7.22;;;;;;;17.25;85.14;100664.31;5035837;28;20134;-81
2022/09/07 01:07:05;;;;;;;9.32;7.47;;;;;;;17.24;85.19;100652.03;5016940;28;20780;-81
2022/09/07 01:09:35;;;;;;;11.95;7.28;;;;;;;17.28;85.22;100651.00;5016681;28;20041;-83
2022/09/07 01:12:04;;;;;;;7.90;6.97;;;;;;;17.28;85.71;100651.00;5029200;28;20045;-83
2022/09/07 01:20:59;;;;;;;8.05;7.22;;;;;;;17.30;86.13;100654.44;5033145;28;20134;-81
2022/09/07 01:24:14;;;;;;;10.18;7.95;;;;;;;17.30;86.76;100646.50;5015437;28;20057;-82
2022/09/07 01:27:31;;;;;;;8.95;7.45;;;;;;;17.29;86.73;100647.44;5029847;28;20041;-82
2022/09/07 01:30:15;;;;;;;10.27;8.93;;;;;;;17.29;87.81;100653.59;5003874;28;20064;-82
2022/09/07 01:33:03;;;;;;;8.57;7.45;;;;;;;17.28;86.88;100649.19;5033575;28;20492;-84
2022/09/07 01:36:06;;;;;;;9.45;8.55;;;;;;;17.25;87.77;100645.81;5052971;28;20385;-83
2022/09/07 01:38:46;;;;;;;8.60;7.72;;;;;;;17.23;87.58;100647.66;5034688;28;20094;-84
2022/09/07 01:41:37;;;;;;;8.85;8.05;;;;;;;17.18;88.67;100647.81;5026174;28;20047;-83
2022/09/07 01:44:16;;;;;;;10.40;7.88;;;;;;;17.16;88.63;100642.59;5036436;28;20040;-83
2022/09/07 01:47:14;;;;;;;8.90;8.10;;;;;;;17.13;89.41;100640.06;5044093;28;20053;-83
2022/09/07 01:49:47;;;;;;;9.18;8.27;;;;;;;17.11;89.08;100635.75;5053671;28;20063;-83
2022/09/07 01:52:25;;;;;;;;;;;;;;;17.08;90.63;100635.84;5053608;28;20032;-83
2022/09/07 01:55:01;;;;;;;7.97;7.18;;;;;;;17.03;89.24;100636.88;5037394;28;19921;-81
2022/09/07 01:57:45;;;;;;;8.85;8.05;;;;;;;17.01;90.34;100629.91;5016871;28;20053;-82
2022/09/07 02:00:19;;;;;;;8.82;7.88;;;;;;;16.98;90.60;100633.53;5023165;28;20046;-82
2022/09/07 02:03:07;;;;;;;10.50;9.30;;;;;;;16.98;91.02;100635.31;5036648;28;20052;-83
2022/09/07 02:05:51;;;;;;;11.00;8.75;;;;;;;16.94;90.87;100624.00;5007805;28;20347;-82
2022/09/07 02:08:33;;;;;;;11.18;9.60;;;;;;;16.92;91.99;100619.66;5035910;28;20661;-81
2022/09/07 02:11:09;;;;;;;9.80;8.80;;;;;;;16.89;91.75;100617.13;5049299;28;20041;-82
2022/09/07 02:13:42;;;;;;;10.68;8.13;;;;;;;16.87;92.48;100618.03;5039716;28;20041;-81
2022/09/07 02:16:28;;;;;;;11.82;9.32;;;;;;;16.85;92.78;100621.66;5037984;28;20037;-82
2022/09/07 02:19:20;;;;;;;10.10;9.30;;;;;;;16.81;92.75;100618.25;5031287;28;20128;-81
2022/09/07 02:22:01;;;;;;;10.00;9.07;;;;;;;16.79;93.25;100624.50;5016196;28;20105;-82
2022/09/07 02:24:37;;;;;;;10.18;8.80;;;;;;;16.79;93.39;100624.50;5014198;28;20048;-81
2022/09/07 02:27:14;;;;;;;14.77;10.23;;;;;;;16.82;93.75;100624.41;5029698;28;20044;-83
2022/09/07 02:29:45;;;;;;;10.38;9.15;;;;;;;16.82;93.53;100622.63;5023713;28;20041;-82
2022/09/07 02:32:16;;;;;;;12.57;10.77;;;;;;;16.84;93.59;100622.56;5021289;28;20049;-83
2022/09/07 02:34:44;;;;;;;11.43;10.00;;;;;;;16.85;93.45;100621.66;5033668;28;20052;-81
2022/09/07 02:37:14;;;;;;;10.57;9.55;;;;;;;16.85;93.63;100617.22;5034902;28;20048;-83
2022/09/07 02:39:49;;;;;;;10.27;9.07;;;;;;;16.86;93.23;100613.66;5023413;28;20072;-83
2022/09/07 02:42:21;;;;;;;11.25;10.13;;;;;;;16.86;93.83;100607.50;5041157;28;20041;-82
2022/09/07 02:44:54;;;;;;;12.27;10.00;;;;;;;16.84;93.64;100607.56;5047911;28;20164;-82
2022/09/07 02:48:04;;;;;;;20.05;11.23;;;;;;;16.84;93.76;100604.94;5038454;28;20053;-82
2022/09/07 02:50:50;;;;;;;11.13;10.02;;;;;;;16.84;94.68;100602.28;5043141;28;20168;-83
2022/09/07 02:53:42;;;;;;;11.88;10.60;;;;;;;16.85;94.29;100601.34;5033438;28;20124;-84
2022/09/07 02:56:33;;;;;;;13.15;10.18;;;;;;;16.86;94.33;100581.06;5055283;28;20063;-83
2022/09/07 02:59:36;;;;;;;18.08;9.77;;;;;;;16.86;93.95;100583.72;5033873;28;20049;-83
2022/09/07 03:02:31;;;;;;;13.85;10.40;;;;;;;16.87;94.50;100583.66;5027658;28;20045;-83
2022/09/07 03:05:11;;;;;;;;;;;;;;;16.87;94.70;100583.66;5061180;28;20060;-83
2022/09/07 03:07:49;;;;;;;13.52;11.43;;;;;;;16.90;94.45;100580.06;5050247;28;19924;-82
2022/09/07 03:10:21;;;;;;;14.70;11.93;;;;;;;16.95;94.22;100609.84;5041860;28;20067;-83
2022/09/07 03:12:51;;;;;;;16.08;12.07;;;;;;;17.17;93.42;100705.16;5018112;28;20509;-82
2022/09/07 03:15:22;;;;;;;16.05;9.95;;;;;;;17.40;91.87;100697.31;5021739;28;20127;-84
2022/09/07 03:17:51;;;;;;;11.30;10.30;;;;;;;17.39;91.51;100648.81;5021621;28;20057;-81
2022/09/07 03:20:19;;;;;;;11.40;9.88;;;;;;;17.41;91.68;100673.44;5021774;28;20061;-82
2022/09/07 03:25:30;;;;;;;10.80;9.70;;;;;;;17.49;90.56;100670.50;5008687;28;20084;-84
2022/09/07 03:27:58;;;;;;;9.60;8.80;;;;;;;17.50;90.47;100672.22;5036699;28;20049;-84
2022/09/07 03:30:27;;;;;;;7.85;6.70;;;;;;;17.50;90.31;100659.84;5049635;28;20061;-82
2022/09/07 03:33:02;;;;;;;10.15;8.57;;;;;;;17.50;90.44;100661.66;5027797;28;20129;-83
2022/09/07 03:35:29;;;;;;;9.95;8.93;;;;;;;17.49;90.37;100657.25;5030011;28;20049;-81
2022/09/07 03:37:56;;;;;;;10.23;9.18;;;;;;;17.50;90.37;100651.91;5026998;28;20083;-83
2022/09/07 03:40:24;;;;;;;10.18;9.27;;;;;;;17.48;90.18;100644.94;5038261;28;20890;-82
2022/09/07 03:42:51;;;;;;;9.20;8.38;;;;;;;17.46;90.39;100650.31;4996330;28;20098;-83
2022/09/07 03:45:21;;;;;;;10.38;8.90;;;;;;;17.47;90.30;100654.69;5019908;28;20139;-83
2022/09/07 03:47:49;;;;;;;10.00;8.77;;;;;;;17.49;90.66;100652.81;5049469;28;20056;-83
2022/09/07 03:50:17;;;;;;;9.70;8.75;;;;;;;17.53;90.27;100653.56;5020189;28;20048;-84
2022/09/07 03:52:47;;;;;;;9.93;9.02;;;;;;;17.57;90.03;100656.97;5037310;28;20033;-81
2022/09/07 03:55:15;;;;;;;11.27;8.00;;;;;;;17.62;89.81;100655.88;5022662;28;20075;-83
2022/09/07 03:57:45;;;;;;;10.45;9.20;;;;;;;17.66;90.18;100653.97;5018559;28;20060;-84
2022/09/07 04:00:14;;;;;;;9.93;8.93;;;;;;;17.68;90.31;100660.09;5019996;28;20052;-83
2022/09/07 04:02:43;;;;;;;9.93;9.02;;;;;;;17.68;91.42;100660.09;5035020;28;20415;-83
2022/09/07 04:05:10;;;;;;;12.43;11.13;;;;;;;17.64;91.98;100666.44;5024046;28;20145;-83
2022/09/07 04:07:40;;;;;;;10.35;9.35;;;;;;;17.57;92.82;100670.22;5037086;28;20056;-84
2022/09/07 04:10:18;;;;;;;15.02;10.80;;;;;;;17.34;96.02;100675.44;5032558;28;20041;-81
2022/09/07 04:12:45;;;;;;;14.40;10.60;;;;;;;17.01;99.57;100670.47;5034916;28;20048;-83
2022/09/07 04:15:12;;;;;;;15.48;11.52;;;;;;;16.68;100.00;100677.75;5002881;28;20051;-83
2022/09/07 04:17:40;;;;;;;15.15;10.48;;;;;;;16.48;100.00;100678.44;4996814;28;20822;-82
2022/09/07 04:20:09;;;;;;;12.68;10.63;;;;;;;16.42;100.00;100675.97;5030228;28;20061;-83
2022/09/07 04:22:37;;;;;;;12.82;11.38;;;;;;;16.41;100.00;100671.59;5023274;28;20529;-82
2022/09/07 04:25:05;;;;;;;11.63;10.45;;;;;;;16.43;100.00;100664.50;5025093;28;20374;-83
2022/09/07 04:27:32;;;;;;;13.02;11.15;;;;;;;16.47;100.00;100666.13;5030869;28;20073;-83
2022/09/07 04:29:59;;;;;;;11.77;10.68;;;;;;;16.51;100.00;100665.09;5013180;28;20064;-82
2022/09/07 04:32:29;;;;;;;14.35;12.90;;;;;;;16.55;100.00;100658.78;5017872;28;20101;-81
2022/09/07 04:34:58;;;;;;;14.65;13.02;;;;;;;16.57;100.00;100659.63;5033454;28;20080;-84
2022/09/07 04:37:26;;;;;;;12.02;9.80;;;;;;;16.64;100.00;100655.84;5026828;28;20045;-82
2022/09/07 04:39:53;;;;;;;9.35;8.55;;;;;;;16.71;100.00;100645.91;5025607;28;20051;-83
2022/09/07 04:42:22;;;;;;;10.93;9.82;;;;;;;16.78;100.00;100652.72;5042960;28;20041;-83
2022/09/07 04:44:53;;;;;;;12.10;11.02;;;;;;;16.83;100.00;100644.63;5024572;28;20077;-82
2022/09/07 04:47:44;;;;;;;12.00;10.35;;;;;;;16.85;100.00;100650.72;5023982;28;20038;-81
2022/09/07 04:50:13;;;;;;;10.45;8.93;;;;;;;16.87;100.00;100665.63;5027097;28;20067;-83
2022/09/07 04:52:44;;;;;;;10.65;9.25;;;;;;;16.92;100.00;100664.63;5028225;28;20435;-82
2022/09/07 04:55:11;;;;;;;12.50;10.30;;;;;;;16.98;100.00;100670.56;4983483;28;20056;-82
2022/09/07 04:57:40;;;;;;;12.68;11.27;;;;;;;17.01;100.00;100673.09;5013161;28;20617;-82
2022/09/07 05:00:10;;;;;;;16.70;10.25;;;;;;;17.06;100.00;100672.06;5014244;28;20068;-81
2022/09/07 05:02:38;;;;;;;10.77;9.38;;;;;;;17.09;100.00;100685.19;5026956;28;20111;-81
2022/09/07 05:05:09;;;;;;;11.48;10.38;;;;;;;17.10;100.00;100685.13;5030999;28;20053;-83
2022/09/07 05:07:42;;;;;;;14.63;10.80;;;;;;;17.12;100.00;100688.59;5018580;28;20057;-82
2022/09/07 05:10:14;;;;;;;16.45;11.75;;;;;;;17.11;100.00;100681.56;5022801;28;20053;-82
2022/09/07 05:12:46;;;;;;;13.90;12.40;;;;;;;17.12;100.00;100677.16;5022266;28;20111;-82
2022/09/07 05:15:17;;;;;;;16.55;12.93;;;;;;;17.13;100.00;100684.16;5006966;28;20043;-80
2022/09/07 05:17:44;;;;;;;15.75;11.55;;;;;;;17.12;100.00;100680.66;5022876;28;20041;-82
2022/09/07 05:20:19;;;;;;;13.90;12.52;;;;;;;17.13;100.00;100674.44;5019499;28;20045;-82
2022/09/07 05:22:50;;;;;;;17.30;12.88;;;;;;;17.12;100.00;100677.16;5026898;28;20045;-80
2022/09/07 05:25:27;;;;;;;13.68;12.30;;;;;;;17.11;100.00;100667.47;4996325;28;20057;-83
2022/09/07 05:28:00;;;;;;;14.60;11.43;;;;;;;17.11;100.00;100676.28;5030934;28;20791;-81
2022/09/07 05:30:33;;;;;;;137.43;26.70;;;;;;;17.15;100.00;100671.75;5029585;28;20479;-84
2022/09/07 05:33:02;;;;;;;15.32;12.43;;;;;;;17.22;100.00;100662.66;5028535;28;20077;-81
2022/09/07 05:35:31;;;;;;;16.70;13.75;;;;;;;17.27;100.00;100646.63;5010570;28;20475;-83
2022/09/07 05:37:58;;;;;;;22.05;13.10;;;;;;;17.24;100.00;100644.09;4996467;28;20049;-84
2022/09/07 05:40:26;;;;;;;16.77;12.82;;;;;;;17.23;100.00;100640.56;5027488;28;20060;-83
2022/09/07 05:42:53;;;;;;;22.55;13.32;;;;;;;17.25;100.00;100624.63;5043025;28;20460;-84
2022/09/07 05:45:20;;;;;;;18.88;13.75;;;;;;;17.27;100.00;100623.66;5013320;28;20041;-82
2022/09/07 05:47:50;;;;;;;18.13;12.98;;;;;;;17.27;100.00;100615.72;5026832;28;20056;-82
2022/09/07 05:50:19;;;;;;;13.80;12.40;;;;;;;17.29;100.00;100610.41;5025686;28;21018;-81
2022/09/07 05:52:46;;;;;;;15.60;13.43;;;;;;;17.25;100.00;100592.88;5013580;28;20115;-82
2022/09/07 05:55:20;;;;;;;15.63;14.13;;;;;;;17.24;100.00;100581.47;5030321;28;20033;-83
2022/09/07 05:57:48;;;;;;;15.68;13.05;;;;;;;17.22;100.00;100572.69;5011488;28;20041;-82
2022/09/07 06:00:16;;;;;;;13.57;12.25;;;;;;;17.22;100.00;100563.91;5020155;28;20040;-83
2022/09/07 06:02:43;;;;;;;16.55;13.18;;;;;;;17.21;100.00;100576.28;5035722;28;20078;-84
2022/09/07 06:05:16;;;;;;;16.67;12.82;;;;;;;17.23;100.00;100570.94;5026949;28;20144;-84
2022/09/07 06:07:47;;;;;;;13.05;11.77;;;;;;;17.25;100.00;100554.09;5038716;28;20063;-84
2022/09/07 06:10:18;;;;;;;15.35;12.32;;;;;;;17.29;100.00;100553.03;5023570;28;20064;-83
2022/09/07 06:12:46;;;;;;;15.73;14.13;;;;;;;17.32;100.00;100549.41;5011556;28;20052;-82
2022/09/07 06:15:16;;;;;;;15.75;12.88;;;;;;;17.36;100.00;100535.16;5044672;28;20090;-83
2022/09/07 06:17:43;;;;;;;18.73;13.18;;;;;;;17.44;100.00;100542.78;5047731;28;20044;-83
2022/09/07 06:20:10;;;;;;;13.50;11.48;;;;;;;17.52;100.00;100549.50;5047391;28;20083;-84
2022/09/07 06:22:38;;;;;;;15.85;11.10;;;;;;;17.65;100.00;100544.59;5050022;28;20045;-84
2022/09/07 06:25:07;;;;;;;11.80;10.63;;;;;;;17.75;100.00;100546.88;5041380;28;20055;-85
2022/09/07 06:27:38;;;;;;;12.70;11.43;;;;;;;17.83;100.00;100545.63;5057288;28;20036;-84
2022/09/07 06:30:06;;;;;;;12.27;10.98;;;;;;;17.89;100.00;100554.25;5075093;28;20028;-85
2022/09/07 06:32:38;;;;;;;14.10;11.25;;;;;;;17.88;100.00;100548.06;5057919;28;20064;-84
2022/09/07 06:35:07;;;;;;;15.68;11.93;;;;;;;17.86;100.00;100560.53;5074805;28;20067;-83
2022/09/07 06:37:34;;;;;;;15.85;11.63;;;;;;;17.80;100.00;100560.78;5055028;28;20049;-83
2022/09/07 06:40:01;;;;;;;13.27;11.98;;;;;;;17.76;100.00;100556.53;5019226;28;20085;-83
2022/09/07 06:42:28;;;;;;;14.13;12.07;;;;;;;17.75;100.00;100544.22;5033046;28;20063;-84
2022/09/07 06:44:57;;;;;;;11.85;10.65;;;;;;;17.76;100.00;100546.78;5045628;28;20068;-83
2022/09/07 06:47:26;;;;;;;15.68;12.38;;;;;;;17.78;100.00;100562.59;5034451;28;20049;-85
2022/09/07 06:49:57;;;;;;;18.75;13.75;;;;;;;17.75;100.00;100555.66;5033209;28;20183;-83
2022/09/07 06:52:24;;;;;;;21.13;14.07;;;;;;;17.71;100.00;100566.44;5033971;28;20189;-84
2022/09/07 06:54:52;;;;;;;17.38;12.82;;;;;;;17.75;100.00;100571.53;5017314;28;20045;-83
2022/09/07 06:57:19;;;;;;;16.02;13.02;;;;;;;17.85;100.00;100590.59;5016853;28;20080;-85
2022/09/07 06:59:46;;;;;;;15.60;13.15;;;;;;;17.88;100.00;100590.44;5008691;28;20050;-85
2022/09/07 07:02:13;;;;;;;12.30;11.13;;;;;;;18.09;100.00;100596.69;5033176;28;20048;-83
2022/09/07 07:04:42;;;;;;;13.95;12.48;;;;;;;18.32;100.00;100597.53;5027368;28;20049;-82
2022/09/07 07:07:14;;;;;;;15.13;12.25;;;;;;;18.68;100.00;100607.44;5031737;28;20110;-84
2022/09/07 07:09:42;;;;;;;13.40;11.82;;;;;;;19.09;98.74;100609.25;5035855;28;20518;-85
2022/09/07 07:12:10;;;;;;;14.60;12.63;;;;;;;19.45;96.33;100619.97;5018988;28;20041;-85
2022/09/07 07:14:39;;;;;;;13.30;11.02;;;;;;;19.88;93.83;100617.09;5000025;28;20058;-84
2022/09/07 07:17:06;;;;;;;13.25;11.73;;;;;;;20.25;91.40;100623.25;5013366;28;20345;-85
2022/09/07 07:19:33;;;;;;;13.40;11.07;;;;;;;20.49;90.05;100631.78;5059602;28;20084;-83
2022/09/07 07:22:08;;;;;;;12.52;11.25;;;;;;;20.70;89.20;100633.44;5062771;28;20072;-84
2022/09/07 07:24:34;;;;;;;13.80;11.98;;;;;;;20.55;87.75;100637.75;5035363;28;20510;-84
2022/09/07 07:27:01;;;;;;;12.82;11.52;;;;;;;20.38;88.96;100635.94;5016907;28;20045;-84
2022/09/07 07:29:30;;;;;;;11.85;10.65;;;;;;;20.15;88.96;100646.78;5030398;28;20126;-85
2022/09/07 07:32:05;;;;;;;11.98;10.52;;;;;;;19.98;90.05;100644.06;5010127;28;20166;-84
2022/09/07 07:37:16;;;;;;;;;;;;;;;20.07;89.70;100651.59;5032830;28;20045;-84
2022/09/07 07:39:44;;;;;;;14.65;9.13;;;;;;;20.33;89.31;100654.75;5014068;28;20563;-84
2022/09/07 07:42:11;;;;;;;10.18;9.10;;;;;;;20.69;87.52;100651.19;5034551;28;20051;-84
2022/09/07 07:44:40;;;;;;;13.32;10.35;;;;;;;21.18;84.09;100652.25;5033121;28;20044;-85
2022/09/07 07:47:07;;;;;;;13.23;9.18;;;;;;;21.29;82.82;100655.19;5016515;28;20136;-84
2022/09/07 07:49:38;;;;;;;9.48;8.43;;;;;;;21.09;83.67;100651.81;5035060;28;20520;-85
2022/09/07 07:52:05;;;;;;;9.60;8.70;;;;;;;21.03;83.85;100654.78;5033487;28;20036;-84
2022/09/07 07:54:37;;;;;;;9.52;8.68;;;;;;;20.87;85.02;100653.84;5030148;28;20049;-84
2022/09/07 07:57:05;;;;;;;11.80;10.70;;;;;;;21.03;83.58;100659.22;5014655;28;20076;-83
2022/09/07 07:59:35;;;;;;;8.55;7.75;;;;;;;21.31;82.64;100650.63;5038263;28;20144;-85
2022/09/07 08:02:08;;;;;;;10.05;9.05;;;;;;;21.74;79.45;100663.44;5021729;28;20073;-85
2022/09/07 08:04:35;;;;;;;12.82;7.80;;;;;;;22.08;77.51;100654.38;5016574;28;20130;-83
2022/09/07 08:07:04;;;;;;;8.20;7.40;;;;;;;22.26;75.67;100647.13;5028309;28;20044;-85
2022/09/07 08:09:35;;;;;;;9.50;8.20;;;;;;;22.68;71.92;100649.19;5019419;28;20075;-84
2022/09/07 08:12:03;;;;;;;8.70;7.85;;;;;;;23.15;71.66;100656.16;5000905;28;20045;-85
2022/09/07 08:14:31;;;;;;;7.18;6.53;;;;;;;23.93;68.69;100655.69;5032540;28;20041;-83
2022/09/07 08:17:16;;;;;;;9.60;8.63;;;;;;;24.21;65.35;100661.03;5034631;28;20049;-85
2022/09/07 08:19:50;;;;;;;8.65;7.20;;;;;;;24.28;65.21;100660.53;5032595;28;20399;-84
2022/09/07 08:22:28;;;;;;;12.65;8.40;;;;;;;23.84;65.42;100664.28;5014699;28;20057;-83
2022/09/07 08:25:00;;;;;;;9.68;7.93;;;;;;;24.19;64.35;100662.97;5025219;28;20119;-83
2022/09/07 08:30:33;;;;;;;8.55;6.35;;;;;;;24.76;62.42;100653.84;5027790;28;20045;-85
2022/09/07 08:33:02;;;;;;;8.35;7.65;;;;;;;25.08;60.25;100658.75;5019588;28;20452;-83
2022/09/07 08:35:34;;;;;;;8.63;7.10;;;;;;;25.27;60.31;100658.31;5016054;28;20046;-83
2022/09/07 08:38:01;;;;;;;9.65;6.70;;;;;;;25.60;59.62;100654.22;5036914;28;20091;-83
2022/09/07 08:40:39;;;;;;;9.65;6.47;;;;;;;25.74;58.94;100647.84;5030827;28;20804;-85
2022/09/07 08:43:51;;;;;;;7.93;7.22;;;;;;;25.77;55.69;100655.66;5046831;28;20045;-83
2022/09/07 08:46:28;;;;;;;7.10;6.40;;;;;;;25.51;58.37;100650.38;5029330;28;20103;-86
2022/09/07 08:48:58;;;;;;;10.02;7.03;;;;;;;25.98;57.27;100653.22;5026591;28;20107;-84
2022/09/07 08:51:43;;;;;;;7.47;6.80;;;;;;;26.68;53.67;100653.44;5027989;28;20038;-85
2022/09/07 08:54:18;;;;;;;7.32;5.78;;;;;;;27.01;52.98;100654.47;5013104;28;20080;-85
2022/09/07 08:56:51;;;;;;;7.20;6.50;;;;;;;27.58;51.64;100654.53;5009863;28;20041;-85
2022/09/07 08:59:29;;;;;;;7.32;6.65;;;;;;;27.97;49.82;100658.47;5015951;28;20053;-85
2022/09/07 09:01:57;;;;;;;7.43;6.93;;;;;;;28.03;49.43;100654.44;5010691;28;20049;-84
2022/09/07 09:04:36;;;;;;;7.22;6.57;;;;;;;28.41;49.04;100647.69;5026785;28;20044;-86
2022/09/07 09:07:37;;;;;;;6.90;4.95;;;;;;;28.90;48.67;100649.88;5013473;28;20045;-86
2022/09/07 09:10:50;;;;;;;7.68;6.63;;;;;;;29.28;46.32;100648.38;5029158;28;20041;-86
2022/09/07 09:13:28;;;;;;;7.78;6.38;;;;;;;29.56;45.61;100646.78;5012990;28;20064;-86
2022/09/07 09:16:18;;;;;;;6.45;5.85;;;;;;;30.14;43.72;100637.97;5044510;28;20109;-85
2022/09/07 09:19:35;;;;;;;6.78;6.18;;;;;;;30.91;42.29;100642.56;5025845;28;20038;-85
2022/09/07 09:22:22;;;;;;;6.88;5.93;;;;;;;32.07;39.78;100642.16;5044670;28;20057;-86
2022/09/07 09:24:58;;;;;;;5.72;5.22;;;;;;;32.95;38.62;100633.22;5023633;28;20037;-86
2022/09/07 09:27:35;;;;;;;5.70;5.20;;;;;;;33.37;37.32;100642.44;5018576;28;20064;-85
2022/09/07 09:30:23;;;;;;;5.63;5.13;;;;;;;33.77;36.26;100633.56;5038556;28;20041;-87
2022/09/07 09:32:55;;;;;;;5.55;4.80;;;;;;;34.09;36.56;100640.13;5029836;28;20046;-87
2022/09/07 09:35:34;;;;;;;;;;;;;;;33.32;35.15;100634.78;5048799;28;20049;-85
2022/09/07 09:38:04;;;;;;;5.00;4.55;;;;;;;33.82;35.25;100629.53;5043996;28;19917;-88
2022/09/07 09:40:41;;;;;;;5.55;5.10;;;;;;;33.83;35.18;100632.06;5045717;28;20056;-86
2022/09/07 09:43:30;;;;;;;5.20;4.78;;;;;;;33.22;35.88;100632.19;5050107;28;20097;-85
2022/09/07 09:46:06;;;;;;;4.75;4.40;;;;;;;32.41;38.32;100630.63;5046176;28;20041;-87
2022/09/07 09:48:40;;;;;;;5.07;4.72;;;;;;;31.92;38.50;100626.44;5054613;28;20029;-86
2022/09/07 09:51:23;;;;;;;5.45;5.05;;;;;;;32.44;37.56;100630.31;5069569;28;20017;-87
2022/09/07 09:54:08;;;;;;;4.93;4.63;;;;;;;31.48;38.60;100628.97;5056674;28;20303;-87
2022/09/07 09:56:49;;;;;;;4.50;4.28;;;;;;;30.42;40.72;100634.53;5044829;28;20040;-86
2022/09/07 09:59:15;;;;;;;4.95;4.55;;;;;;;29.36;42.64;100637.78;5036736;28;20049;-86
2022/09/07 10:01:45;;;;;;;5.60;5.10;;;;;;;28.86;44.17;100639.38;5059272;28;20095;-86
2022/09/07 10:04:24;;;;;;;5.28;4.88;;;;;;;28.20;45.60;100624.28;5029875;28;20671;-86
2022/09/07 10:06:55;;;;;;;5.05;4.75;;;;;;;27.75;46.77;100632.47;5032525;28;20072;-86
2022/09/07 10:09:27;;;;;;;4.40;4.07;;;;;;;27.63;47.20;100628.97;5036223;28;20144;-85
2022/09/07 10:11:59;;;;;;;;;;;;;;;28.03;46.45;100624.84;5033753;28;20048;-86
2022/09/07 10:14:43;;;;;;;4.70;4.30;;;;;;;28.73;44.89;100622.56;5034899;28;19967;-85
2022/09/07 10:17:29;;;;;;;4.95;4.55;;;;;;;29.45;43.99;100625.31;5050456;28;20053;-87
2022/09/07 10:20:23;;;;;;;5.28;4.60;;;;;;;29.65;42.99;100624.38;5026310;28;20048;-87
2022/09/07 10:22:59;;;;;;;6.38;4.88;;;;;;;29.27;43.28;100630.50;5043957;28;20049;-87
2022/09/07 10:25:46;;;;;;;6.22;4.40;;;;;;;28.80;44.46;100621.06;5032965;28;20375;-86
2022/09/07 10:28:30;;;;;;;3.83;3.53;;;;;;;28.61;45.35;100618.22;5044201;28;20084;-85
2022/09/07 10:34:43;;;;;;;4.85;4.45;;;;;;;28.68;44.83;100617.59;5025352;28;20381;-87
2022/09/07 10:37:21;;;;;;;5.60;4.90;;;;;;;29.61;43.39;100614.84;5031836;28;20342;-85
2022/09/07 10:40:20;;;;;;;4.88;4.47;;;;;;;31.47;39.79;100609.22;5020598;28;20061;-87
2022/09/07 10:43:13;;;;;;;5.47;4.60;;;;;;;31.49;40.14;100611.75;5034105;28;20055;-86
2022/09/07 10:46:18;;;;;;;4.93;4.53;;;;;;;30.38;41.47;100612.38;5040087;28;20557;-86
2022/09/07 10:49:24;;;;;;;4.68;4.28;;;;;;;29.32;43.74;100612.06;5015570;28;20498;-86
2022/09/07 10:52:36;;;;;;;5.40;4.95;;;;;;;28.07;46.61;100612.84;5032816;28;20049;-87
2022/09/07 10:55:28;;;;;;;5.57;4.00;;;;;;;27.28;48.78;100603.06;5020876;28;20041;-85
2022/09/07 10:58:04;;;;;;;4.13;3.80;;;;;;;27.10;49.96;100599.19;5031296;28;20068;-85
2022/09/07 11:00:46;;;;;;;4.13;3.83;;;;;;;27.06;49.20;100599.44;5042765;28;20073;-86
2022/09/07 11:03:31;;;;;;;3.95;3.65;;;;;;;26.88;49.50;100599.06;5031285;28;20041;-86
2022/09/07 11:06:31;;;;;;;4.30;3.38;;;;;;;26.93;49.81;100604.03;5036545;28;20068;-86
2022/09/07 11:09:27;;;;;;;5.82;3.70;;;;;;;26.87;49.15;100596.47;5021233;28;20576;-86
2022/09/07 11:12:24;;;;;;;3.38;3.17;;;;;;;27.24;48.08;100601.59;5043651;28;20098;-86
2022/09/07 11:15:14;;;;;;;3.83;3.53;;;;;;;27.71;47.25;100596.06;5032556;28;20128;-86
2022/09/07 11:17:54;;;;;;;9.73;3.92;;;;;;;29.70;42.87;100600.53;5056817;28;20053;-86
2022/09/07 11:20:39;;;;;;;3.60;3.30;;;;;;;31.04;40.17;100596.28;5043824;28;20049;-86
2022/09/07 11:23:42;;;;;;;5.55;3.97;;;;;;;32.08;37.91;100585.13;5024505;28;20050;-85
2022/09/07 11:26:28;;;;;;;3.78;3.42;;;;;;;32.56;36.99;100585.69;5054336;28;20098;-86
2022/09/07 11:29:23;;;;;;;3.70;3.40;;;;;;;32.14;37.19;100583.66;5041006;28;20043;-86
2022/09/07 11:32:04;;;;;;;3.45;3.25;;;;;;;31.00;39.24;100587.63;5021313;28;20048;-87
2022/09/07 11:34:43;;;;;;;4.95;3.50;;;;;;;30.20;40.98;100583.38;5011405;28;20053;-87
2022/09/07 11:37:30;;;;;;;3.40;3.13;;;;;;;31.40;39.33;100586.47;5052710;28;20040;-87
2022/09/07 11:40:10;;;;;;;3.50;3.25;;;;;;;33.67;35.12;100575.84;5033295;28;20069;-87
2022/09/07 11:43:19;;;;;;;2.63;2.30;;;;;;;34.95;31.56;100569.00;5049531;28;20102;-86
2022/09/07 11:46:04;;;;;;;3.28;3.03;;;;;;;34.63;33.02;100574.34;5048141;28;20451;-87
2022/09/07 11:48:53;;;;;;;3.70;2.42;;;;;;;34.96;31.82;100570.72;5030470;28;20113;-87
2022/09/07 11:52:07;;;;;;;3.28;2.45;;;;;;;33.84;33.79;100567.78;5032520;28;20045;-86
2022/09/07 11:58:11;;;;;;;3.22;2.67;;;;;;;30.94;38.17;100570.16;5045615;28;20040;-86
2022/09/07 12:01:07;;;;;;;4.93;4.45;;;;;;;30.05;39.64;100567.78;5025549;28;20049;-87
2022/09/07 12:04:41;;;;;;;4.95;2.10;;;;;;;29.18;40.92;100573.69;5054844;28;20056;-87
2022/09/07 12:07:52;;;;;;;2.38;2.10;;;;;;;29.62;40.59;100564.44;5037938;28;20732;-85
2022/09/07 12:11:20;;;;;;;3.83;2.80;;;;;;;29.68;40.45;100562.03;5033306;28;20045;-88
2022/09/07 12:14:23;;;;;;;3.75;2.47;;;;;;;29.47;41.17;100564.84;5011981;28;20052;-86
2022/09/07 12:17:15;;;;;;;2.60;2.50;;;;;;;29.77;40.77;100552.25;5037451;28;20056;-88
2022/09/07 12:19:42;;;;;;;2.72;2.63;;;;;;;29.95;40.45;100547.03;5038241;28;20113;-87
2022/09/07 12:22:21;;;;;;;2.15;1.98;;;;;;;30.67;39.18;100543.94;5065361;28;20060;-86